sensor_id;sensor_type;location;lat;lon;timestamp;P1;durP1;ratioP1;P2;durP2;ratioP2
3274;SDS011;1649;53.672;10.064;2024-02-26T00:02:13;32.90;;;17.93;;
3274;SDS011;1649;53.672;10.064;2024-02-26T00:04:39;32.07;;;17.10;;
3274;SDS011;1649;53.672;10.064;2024-02-26T00:07:04;28.77;;;17.03;;
3274;SDS011;1649;53.672;10.064;2024-02-26T00:09:30;27.43;;;15.30;;
3274;SDS011;1649;53.672;10.064;2024-02-26T00:11:56;28.23;;;15.77;;
3274;SDS011;1649;53.672;10.064;2024-02-26T00:14:21;27.77;;;16.60;;
3274;SDS011;1649;53.672;10.064;2024-02-26T00:16:47;29.23;;;16.27;;
3274;SDS011;1649;53.672;10.064;2024-02-26T00:19:12;31.57;;;18.23;;
3274;SDS011;1649;53.672;10.064;2024-02-26T00:21:41;29.77;;;17.70;;
3274;SDS011;1649;53.672;10.064;2024-02-26T00:24:07;30.03;;;16.60;;
3274;SDS011;1649;53.672;10.064;2024-02-26T00:26:33;31.97;;;16.93;;
3274;SDS011;1649;53.672;10.064;2024-02-26T00:28:58;31.73;;;18.50;;
3274;SDS011;1649;53.672;10.064;2024-02-26T00:31:24;27.50;;;15.47;;
3274;SDS011;1649;53.672;10.064;2024-02-26T00:33:49;26.63;;;16.00;;
3274;SDS011;1649;53.672;10.064;2024-02-26T00:36:15;24.80;;;15.60;;
3274;SDS011;1649;53.672;10.064;2024-02-26T00:38:40;24.77;;;16.03;;
3274;SDS011;1649;53.672;10.064;2024-02-26T00:41:07;30.43;;;16.87;;
3274;SDS011;1649;53.672;10.064;2024-02-26T00:43:33;25.20;;;15.80;;
3274;SDS011;1649;53.672;10.064;2024-02-26T00:45:58;27.53;;;16.13;;
3274;SDS011;1649;53.672;10.064;2024-02-26T00:48:24;30.37;;;16.43;;
3274;SDS011;1649;53.672;10.064;2024-02-26T00:50:51;24.70;;;14.60;;
3274;SDS011;1649;53.672;10.064;2024-02-26T00:53:16;29.60;;;13.97;;
3274;SDS011;1649;53.672;10.064;2024-02-26T00:55:42;25.77;;;15.13;;
3274;SDS011;1649;53.672;10.064;2024-02-26T00:58:08;27.50;;;14.90;;
3274;SDS011;1649;53.672;10.064;2024-02-26T01:00:34;24.97;;;14.33;;
3274;SDS011;1649;53.672;10.064;2024-02-26T01:02:59;24.90;;;13.67;;
3274;SDS011;1649;53.672;10.064;2024-02-26T01:05:25;27.60;;;14.17;;
3274;SDS011;1649;53.672;10.064;2024-02-26T01:07:51;24.87;;;13.10;;
3274;SDS011;1649;53.672;10.064;2024-02-26T01:10:16;25.97;;;13.03;;
3274;SDS011;1649;53.672;10.064;2024-02-26T01:12:42;27.00;;;13.50;;
3274;SDS011;1649;53.672;10.064;2024-02-26T01:15:07;23.60;;;12.90;;
3274;SDS011;1649;53.672;10.064;2024-02-26T01:17:33;23.77;;;12.60;;
3274;SDS011;1649;53.672;10.064;2024-02-26T01:19:58;19.70;;;11.13;;
3274;SDS011;1649;53.672;10.064;2024-02-26T01:22:24;22.50;;;12.00;;
3274;SDS011;1649;53.672;10.064;2024-02-26T01:24:49;25.00;;;12.73;;
3274;SDS011;1649;53.672;10.064;2024-02-26T01:27:15;24.90;;;11.03;;
3274;SDS011;1649;53.672;10.064;2024-02-26T01:29:41;25.93;;;11.90;;
3274;SDS011;1649;53.672;10.064;2024-02-26T01:32:07;23.70;;;11.87;;
3274;SDS011;1649;53.672;10.064;2024-02-26T01:34:32;25.60;;;12.33;;
3274;SDS011;1649;53.672;10.064;2024-02-26T01:36:58;23.20;;;10.90;;
3274;SDS011;1649;53.672;10.064;2024-02-26T01:39:24;23.63;;;11.47;;
3274;SDS011;1649;53.672;10.064;2024-02-26T01:41:49;32.20;;;13.00;;
3274;SDS011;1649;53.672;10.064;2024-02-26T01:44:15;24.17;;;11.60;;
3274;SDS011;1649;53.672;10.064;2024-02-26T01:46:40;25.50;;;11.93;;
3274;SDS011;1649;53.672;10.064;2024-02-26T01:49:06;23.60;;;11.77;;
3274;SDS011;1649;53.672;10.064;2024-02-26T01:51:37;22.70;;;11.83;;
3274;SDS011;1649;53.672;10.064;2024-02-26T01:54:04;24.03;;;11.33;;
3274;SDS011;1649;53.672;10.064;2024-02-26T01:56:30;24.17;;;11.13;;
3274;SDS011;1649;53.672;10.064;2024-02-26T01:58:57;27.10;;;13.10;;
3274;SDS011;1649;53.672;10.064;2024-02-26T02:01:27;24.10;;;11.63;;
3274;SDS011;1649;53.672;10.064;2024-02-26T02:03:54;28.67;;;11.43;;
3274;SDS011;1649;53.672;10.064;2024-02-26T02:06:22;26.10;;;12.73;;
3274;SDS011;1649;53.672;10.064;2024-02-26T02:08:48;26.30;;;11.70;;
3274;SDS011;1649;53.672;10.064;2024-02-26T02:11:14;27.10;;;12.90;;
3274;SDS011;1649;53.672;10.064;2024-02-26T02:13:40;23.97;;;12.27;;
3274;SDS011;1649;53.672;10.064;2024-02-26T02:16:06;24.10;;;12.07;;
3274;SDS011;1649;53.672;10.064;2024-02-26T02:18:32;25.07;;;12.37;;
3274;SDS011;1649;53.672;10.064;2024-02-26T02:21:01;24.40;;;12.07;;
3274;SDS011;1649;53.672;10.064;2024-02-26T02:23:27;23.90;;;11.47;;
3274;SDS011;1649;53.672;10.064;2024-02-26T02:25:52;20.20;;;11.13;;
3274;SDS011;1649;53.672;10.064;2024-02-26T02:28:20;26.60;;;13.00;;
3274;SDS011;1649;53.672;10.064;2024-02-26T02:30:45;26.30;;;13.83;;
3274;SDS011;1649;53.672;10.064;2024-02-26T02:33:11;24.60;;;13.00;;
3274;SDS011;1649;53.672;10.064;2024-02-26T02:35:37;26.30;;;13.10;;
3274;SDS011;1649;53.672;10.064;2024-02-26T02:38:03;26.90;;;12.20;;
3274;SDS011;1649;53.672;10.064;2024-02-26T02:40:28;23.77;;;12.50;;
3274;SDS011;1649;53.672;10.064;2024-02-26T02:42:54;30.00;;;15.00;;
3274;SDS011;1649;53.672;10.064;2024-02-26T02:45:19;26.93;;;12.90;;
3274;SDS011;1649;53.672;10.064;2024-02-26T02:47:45;26.80;;;12.73;;
3274;SDS011;1649;53.672;10.064;2024-02-26T02:50:10;22.07;;;11.57;;
3274;SDS011;1649;53.672;10.064;2024-02-26T02:52:36;28.17;;;13.63;;
3274;SDS011;1649;53.672;10.064;2024-02-26T02:55:01;24.60;;;12.90;;
3274;SDS011;1649;53.672;10.064;2024-02-26T02:57:27;27.40;;;13.30;;
3274;SDS011;1649;53.672;10.064;2024-02-26T02:59:53;23.10;;;12.13;;
3274;SDS011;1649;53.672;10.064;2024-02-26T03:02:18;26.37;;;12.63;;
3274;SDS011;1649;53.672;10.064;2024-02-26T03:04:44;23.53;;;11.63;;
3274;SDS011;1649;53.672;10.064;2024-02-26T03:07:09;24.03;;;13.27;;
3274;SDS011;1649;53.672;10.064;2024-02-26T03:09:35;27.37;;;13.90;;
3274;SDS011;1649;53.672;10.064;2024-02-26T03:12:00;26.13;;;13.10;;
3274;SDS011;1649;53.672;10.064;2024-02-26T03:14:26;24.70;;;12.33;;
3274;SDS011;1649;53.672;10.064;2024-02-26T03:16:54;25.40;;;13.20;;
3274;SDS011;1649;53.672;10.064;2024-02-26T03:19:20;23.47;;;13.13;;
3274;SDS011;1649;53.672;10.064;2024-02-26T03:21:45;27.50;;;12.73;;
3274;SDS011;1649;53.672;10.064;2024-02-26T03:24:11;31.10;;;13.37;;
3274;SDS011;1649;53.672;10.064;2024-02-26T03:26:37;24.93;;;12.20;;
3274;SDS011;1649;53.672;10.064;2024-02-26T03:29:02;27.50;;;14.27;;
3274;SDS011;1649;53.672;10.064;2024-02-26T03:31:28;24.27;;;12.57;;
3274;SDS011;1649;53.672;10.064;2024-02-26T03:33:54;27.90;;;13.47;;
3274;SDS011;1649;53.672;10.064;2024-02-26T03:36:19;25.40;;;14.37;;
3274;SDS011;1649;53.672;10.064;2024-02-26T03:38:46;30.10;;;15.60;;
3274;SDS011;1649;53.672;10.064;2024-02-26T03:41:12;28.23;;;14.70;;
3274;SDS011;1649;53.672;10.064;2024-02-26T03:43:38;29.30;;;15.53;;
3274;SDS011;1649;53.672;10.064;2024-02-26T03:46:03;27.57;;;15.50;;
3274;SDS011;1649;53.672;10.064;2024-02-26T03:48:29;29.43;;;15.03;;
3274;SDS011;1649;53.672;10.064;2024-02-26T03:50:54;27.73;;;14.57;;
3274;SDS011;1649;53.672;10.064;2024-02-26T03:53:19;30.33;;;15.20;;
3274;SDS011;1649;53.672;10.064;2024-02-26T03:55:45;29.23;;;15.37;;
3274;SDS011;1649;53.672;10.064;2024-02-26T03:58:12;31.97;;;14.97;;
3274;SDS011;1649;53.672;10.064;2024-02-26T04:00:37;35.23;;;15.63;;
3274;SDS011;1649;53.672;10.064;2024-02-26T04:03:03;31.03;;;15.53;;
3274;SDS011;1649;53.672;10.064;2024-02-26T04:05:28;33.07;;;14.87;;
3274;SDS011;1649;53.672;10.064;2024-02-26T04:07:54;32.43;;;15.53;;
3274;SDS011;1649;53.672;10.064;2024-02-26T04:10:19;31.80;;;14.47;;
3274;SDS011;1649;53.672;10.064;2024-02-26T04:12:45;43.60;;;15.43;;
3274;SDS011;1649;53.672;10.064;2024-02-26T04:15:11;27.17;;;13.83;;
3274;SDS011;1649;53.672;10.064;2024-02-26T04:17:37;30.57;;;15.30;;
3274;SDS011;1649;53.672;10.064;2024-02-26T04:20:03;32.17;;;15.33;;
3274;SDS011;1649;53.672;10.064;2024-02-26T04:22:30;29.80;;;14.70;;
3274;SDS011;1649;53.672;10.064;2024-02-26T04:24:56;35.60;;;15.30;;
3274;SDS011;1649;53.672;10.064;2024-02-26T04:27:21;30.00;;;14.63;;
3274;SDS011;1649;53.672;10.064;2024-02-26T04:29:47;27.67;;;14.27;;
3274;SDS011;1649;53.672;10.064;2024-02-26T04:32:12;30.37;;;17.00;;
3274;SDS011;1649;53.672;10.064;2024-02-26T04:34:38;28.63;;;13.97;;
3274;SDS011;1649;53.672;10.064;2024-02-26T04:37:03;29.70;;;15.53;;
3274;SDS011;1649;53.672;10.064;2024-02-26T04:39:29;26.93;;;15.20;;
3274;SDS011;1649;53.672;10.064;2024-02-26T04:41:54;30.57;;;16.63;;
3274;SDS011;1649;53.672;10.064;2024-02-26T04:44:20;28.10;;;15.50;;
3274;SDS011;1649;53.672;10.064;2024-02-26T04:46:45;28.83;;;14.47;;
3274;SDS011;1649;53.672;10.064;2024-02-26T04:49:11;26.00;;;14.33;;
3274;SDS011;1649;53.672;10.064;2024-02-26T04:51:36;31.73;;;14.70;;
3274;SDS011;1649;53.672;10.064;2024-02-26T04:54:02;33.10;;;15.17;;
3274;SDS011;1649;53.672;10.064;2024-02-26T04:56:27;29.70;;;15.40;;
3274;SDS011;1649;53.672;10.064;2024-02-26T04:58:53;32.90;;;16.50;;
3274;SDS011;1649;53.672;10.064;2024-02-26T05:01:18;30.03;;;16.77;;
3274;SDS011;1649;53.672;10.064;2024-02-26T05:03:44;32.47;;;15.27;;
3274;SDS011;1649;53.672;10.064;2024-02-26T05:06:09;23.77;;;14.07;;
3274;SDS011;1649;53.672;10.064;2024-02-26T05:08:35;29.60;;;15.90;;
3274;SDS011;1649;53.672;10.064;2024-02-26T05:11:01;30.40;;;15.87;;
3274;SDS011;1649;53.672;10.064;2024-02-26T05:13:27;30.37;;;15.40;;
3274;SDS011;1649;53.672;10.064;2024-02-26T05:15:53;29.23;;;15.60;;
3274;SDS011;1649;53.672;10.064;2024-02-26T05:18:19;27.37;;;14.37;;
3274;SDS011;1649;53.672;10.064;2024-02-26T05:20:44;26.93;;;14.63;;
3274;SDS011;1649;53.672;10.064;2024-02-26T05:23:10;26.77;;;14.03;;
3274;SDS011;1649;53.672;10.064;2024-02-26T05:25:35;27.73;;;15.23;;
3274;SDS011;1649;53.672;10.064;2024-02-26T05:28:01;29.80;;;16.83;;
3274;SDS011;1649;53.672;10.064;2024-02-26T05:30:26;26.60;;;14.93;;
3274;SDS011;1649;53.672;10.064;2024-02-26T05:32:53;33.83;;;16.90;;
3274;SDS011;1649;53.672;10.064;2024-02-26T05:35:18;31.43;;;14.73;;
3274;SDS011;1649;53.672;10.064;2024-02-26T05:37:44;30.27;;;16.47;;
3274;SDS011;1649;53.672;10.064;2024-02-26T05:40:10;34.00;;;16.23;;
3274;SDS011;1649;53.672;10.064;2024-02-26T05:42:36;33.20;;;16.70;;
3274;SDS011;1649;53.672;10.064;2024-02-26T05:45:02;29.63;;;16.20;;
3274;SDS011;1649;53.672;10.064;2024-02-26T05:47:34;29.60;;;15.47;;
3274;SDS011;1649;53.672;10.064;2024-02-26T05:50:00;30.80;;;15.30;;
3274;SDS011;1649;53.672;10.064;2024-02-26T05:52:26;25.23;;;14.57;;
3274;SDS011;1649;53.672;10.064;2024-02-26T05:54:53;32.83;;;15.40;;
3274;SDS011;1649;53.672;10.064;2024-02-26T05:57:19;28.90;;;15.30;;
3274;SDS011;1649;53.672;10.064;2024-02-26T05:59:44;31.70;;;15.77;;
3274;SDS011;1649;53.672;10.064;2024-02-26T06:02:10;29.87;;;16.60;;
3274;SDS011;1649;53.672;10.064;2024-02-26T06:04:35;28.60;;;15.33;;
3274;SDS011;1649;53.672;10.064;2024-02-26T06:07:01;30.30;;;15.90;;
3274;SDS011;1649;53.672;10.064;2024-02-26T06:09:26;27.70;;;15.50;;
3274;SDS011;1649;53.672;10.064;2024-02-26T06:11:52;30.53;;;16.33;;
3274;SDS011;1649;53.672;10.064;2024-02-26T06:14:17;28.90;;;16.13;;
3274;SDS011;1649;53.672;10.064;2024-02-26T06:16:44;31.50;;;15.97;;
3274;SDS011;1649;53.672;10.064;2024-02-26T06:19:10;37.07;;;16.77;;
3274;SDS011;1649;53.672;10.064;2024-02-26T06:21:35;41.67;;;16.90;;
3274;SDS011;1649;53.672;10.064;2024-02-26T06:24:01;28.83;;;15.50;;
3274;SDS011;1649;53.672;10.064;2024-02-26T06:26:27;36.40;;;16.40;;
3274;SDS011;1649;53.672;10.064;2024-02-26T06:28:54;39.73;;;17.10;;
3274;SDS011;1649;53.672;10.064;2024-02-26T06:31:20;36.70;;;16.63;;
3274;SDS011;1649;53.672;10.064;2024-02-26T06:33:47;31.87;;;16.00;;
3274;SDS011;1649;53.672;10.064;2024-02-26T06:36:13;33.00;;;15.83;;
3274;SDS011;1649;53.672;10.064;2024-02-26T06:38:39;29.60;;;15.57;;
3274;SDS011;1649;53.672;10.064;2024-02-26T06:41:04;30.97;;;16.30;;
3274;SDS011;1649;53.672;10.064;2024-02-26T06:43:30;37.53;;;17.17;;
3274;SDS011;1649;53.672;10.064;2024-02-26T06:45:55;34.63;;;15.40;;
3274;SDS011;1649;53.672;10.064;2024-02-26T06:48:23;43.03;;;17.10;;
3274;SDS011;1649;53.672;10.064;2024-02-26T06:50:49;33.27;;;16.40;;
3274;SDS011;1649;53.672;10.064;2024-02-26T06:53:14;33.07;;;17.33;;
3274;SDS011;1649;53.672;10.064;2024-02-26T06:55:41;32.20;;;17.07;;
3274;SDS011;1649;53.672;10.064;2024-02-26T06:58:07;37.23;;;17.97;;
3274;SDS011;1649;53.672;10.064;2024-02-26T07:00:33;35.10;;;16.83;;
3274;SDS011;1649;53.672;10.064;2024-02-26T07:02:58;46.87;;;17.63;;
3274;SDS011;1649;53.672;10.064;2024-02-26T07:05:24;34.63;;;16.60;;
3274;SDS011;1649;53.672;10.064;2024-02-26T07:07:49;28.40;;;15.23;;
3274;SDS011;1649;53.672;10.064;2024-02-26T07:10:14;33.47;;;17.00;;
3274;SDS011;1649;53.672;10.064;2024-02-26T07:12:40;31.97;;;17.03;;
3274;SDS011;1649;53.672;10.064;2024-02-26T07:15:06;28.20;;;14.77;;
3274;SDS011;1649;53.672;10.064;2024-02-26T07:17:33;35.07;;;15.23;;
3274;SDS011;1649;53.672;10.064;2024-02-26T07:19:59;28.33;;;14.43;;
3274;SDS011;1649;53.672;10.064;2024-02-26T07:22:24;32.37;;;15.63;;
3274;SDS011;1649;53.672;10.064;2024-02-26T07:24:50;38.93;;;17.00;;
3274;SDS011;1649;53.672;10.064;2024-02-26T07:27:16;30.20;;;16.10;;
3274;SDS011;1649;53.672;10.064;2024-02-26T07:29:43;40.77;;;16.07;;
3274;SDS011;1649;53.672;10.064;2024-02-26T07:32:08;38.50;;;15.63;;
3274;SDS011;1649;53.672;10.064;2024-02-26T07:34:34;35.60;;;16.47;;
3274;SDS011;1649;53.672;10.064;2024-02-26T07:37:00;30.27;;;14.67;;
3274;SDS011;1649;53.672;10.064;2024-02-26T07:39:25;32.43;;;15.03;;
3274;SDS011;1649;53.672;10.064;2024-02-26T07:41:51;32.13;;;15.10;;
3274;SDS011;1649;53.672;10.064;2024-02-26T07:44:18;36.47;;;16.10;;
3274;SDS011;1649;53.672;10.064;2024-02-26T07:46:43;42.40;;;16.83;;
3274;SDS011;1649;53.672;10.064;2024-02-26T07:49:09;32.47;;;16.70;;
3274;SDS011;1649;53.672;10.064;2024-02-26T07:51:34;48.10;;;17.77;;
3274;SDS011;1649;53.672;10.064;2024-02-26T07:54:00;34.13;;;15.07;;
3274;SDS011;1649;53.672;10.064;2024-02-26T07:56:26;34.30;;;16.20;;
3274;SDS011;1649;53.672;10.064;2024-02-26T07:58:51;37.30;;;16.60;;
3274;SDS011;1649;53.672;10.064;2024-02-26T08:01:17;26.20;;;13.50;;
3274;SDS011;1649;53.672;10.064;2024-02-26T08:03:42;36.47;;;15.67;;
3274;SDS011;1649;53.672;10.064;2024-02-26T08:06:08;35.33;;;16.00;;
3274;SDS011;1649;53.672;10.064;2024-02-26T08:08:33;31.93;;;15.30;;
3274;SDS011;1649;53.672;10.064;2024-02-26T08:10:59;38.73;;;15.20;;
3274;SDS011;1649;53.672;10.064;2024-02-26T08:13:25;31.13;;;14.00;;
3274;SDS011;1649;53.672;10.064;2024-02-26T08:15:51;29.10;;;14.50;;
3274;SDS011;1649;53.672;10.064;2024-02-26T08:18:17;46.47;;;15.57;;
3274;SDS011;1649;53.672;10.064;2024-02-26T08:20:42;43.63;;;15.97;;
3274;SDS011;1649;53.672;10.064;2024-02-26T08:23:08;28.83;;;14.40;;
3274;SDS011;1649;53.672;10.064;2024-02-26T08:25:33;47.07;;;15.00;;
3274;SDS011;1649;53.672;10.064;2024-02-26T08:27:59;36.57;;;14.93;;
3274;SDS011;1649;53.672;10.064;2024-02-26T08:30:24;29.77;;;14.43;;
3274;SDS011;1649;53.672;10.064;2024-02-26T08:32:50;34.23;;;15.53;;
3274;SDS011;1649;53.672;10.064;2024-02-26T08:35:15;37.63;;;15.00;;
3274;SDS011;1649;53.672;10.064;2024-02-26T08:37:44;46.13;;;16.93;;
3274;SDS011;1649;53.672;10.064;2024-02-26T08:40:10;33.17;;;14.80;;
3274;SDS011;1649;53.672;10.064;2024-02-26T08:42:36;31.10;;;14.63;;
3274;SDS011;1649;53.672;10.064;2024-02-26T08:45:01;29.17;;;13.37;;
3274;SDS011;1649;53.672;10.064;2024-02-26T08:47:27;30.87;;;13.93;;
3274;SDS011;1649;53.672;10.064;2024-02-26T08:49:53;29.97;;;14.70;;
3274;SDS011;1649;53.672;10.064;2024-02-26T08:52:19;28.43;;;13.80;;
3274;SDS011;1649;53.672;10.064;2024-02-26T08:54:44;35.03;;;13.57;;
3274;SDS011;1649;53.672;10.064;2024-02-26T08:57:10;26.47;;;13.73;;
3274;SDS011;1649;53.672;10.064;2024-02-26T08:59:35;33.17;;;16.00;;
3274;SDS011;1649;53.672;10.064;2024-02-26T09:02:01;30.83;;;14.50;;
3274;SDS011;1649;53.672;10.064;2024-02-26T09:04:27;33.70;;;14.50;;
3274;SDS011;1649;53.672;10.064;2024-02-26T09:06:53;62.90;;;14.47;;
3274;SDS011;1649;53.672;10.064;2024-02-26T09:09:18;25.70;;;13.30;;
3274;SDS011;1649;53.672;10.064;2024-02-26T09:11:45;32.00;;;14.60;;
3274;SDS011;1649;53.672;10.064;2024-02-26T09:14:10;29.93;;;13.17;;
3274;SDS011;1649;53.672;10.064;2024-02-26T09:16:36;29.20;;;14.27;;
3274;SDS011;1649;53.672;10.064;2024-02-26T09:19:02;28.20;;;14.60;;
3274;SDS011;1649;53.672;10.064;2024-02-26T09:21:28;34.93;;;14.63;;
3274;SDS011;1649;53.672;10.064;2024-02-26T09:23:53;28.57;;;15.00;;
3274;SDS011;1649;53.672;10.064;2024-02-26T09:26:19;28.10;;;14.77;;
3274;SDS011;1649;53.672;10.064;2024-02-26T09:28:45;32.50;;;15.13;;
3274;SDS011;1649;53.672;10.064;2024-02-26T09:31:10;29.23;;;14.30;;
3274;SDS011;1649;53.672;10.064;2024-02-26T09:33:36;37.00;;;14.33;;
3274;SDS011;1649;53.672;10.064;2024-02-26T09:36:02;30.30;;;15.53;;
3274;SDS011;1649;53.672;10.064;2024-02-26T09:38:29;27.13;;;14.00;;
3274;SDS011;1649;53.672;10.064;2024-02-26T09:40:55;32.60;;;14.80;;
3274;SDS011;1649;53.672;10.064;2024-02-26T09:43:22;36.63;;;16.30;;
3274;SDS011;1649;53.672;10.064;2024-02-26T09:45:49;30.33;;;14.93;;
3274;SDS011;1649;53.672;10.064;2024-02-26T09:48:16;31.00;;;14.13;;
3274;SDS011;1649;53.672;10.064;2024-02-26T09:50:42;30.90;;;13.73;;
3274;SDS011;1649;53.672;10.064;2024-02-26T09:53:09;31.47;;;14.23;;
3274;SDS011;1649;53.672;10.064;2024-02-26T09:55:36;32.07;;;13.70;;
3274;SDS011;1649;53.672;10.064;2024-02-26T09:58:01;35.40;;;15.00;;
3274;SDS011;1649;53.672;10.064;2024-02-26T10:00:30;30.43;;;14.53;;
3274;SDS011;1649;53.672;10.064;2024-02-26T10:02:58;33.60;;;14.47;;
3274;SDS011;1649;53.672;10.064;2024-02-26T10:05:28;28.77;;;13.80;;
3274;SDS011;1649;53.672;10.064;2024-02-26T10:07:54;33.60;;;14.50;;
3274;SDS011;1649;53.672;10.064;2024-02-26T10:10:22;33.30;;;15.03;;
3274;SDS011;1649;53.672;10.064;2024-02-26T10:12:48;34.03;;;14.90;;
3274;SDS011;1649;53.672;10.064;2024-02-26T10:15:13;31.77;;;15.57;;
3274;SDS011;1649;53.672;10.064;2024-02-26T10:17:39;30.17;;;13.97;;
3274;SDS011;1649;53.672;10.064;2024-02-26T10:20:15;31.03;;;14.40;;
3274;SDS011;1649;53.672;10.064;2024-02-26T10:22:48;38.10;;;15.67;;
3274;SDS011;1649;53.672;10.064;2024-02-26T10:25:14;34.50;;;15.60;;
3274;SDS011;1649;53.672;10.064;2024-02-26T10:27:42;32.93;;;16.83;;
3274;SDS011;1649;53.672;10.064;2024-02-26T10:30:18;29.30;;;15.00;;
3274;SDS011;1649;53.672;10.064;2024-02-26T10:32:45;32.10;;;15.03;;
3274;SDS011;1649;53.672;10.064;2024-02-26T10:35:14;30.60;;;14.30;;
3274;SDS011;1649;53.672;10.064;2024-02-26T10:37:41;29.73;;;15.50;;
3274;SDS011;1649;53.672;10.064;2024-02-26T10:40:10;33.13;;;14.60;;
3274;SDS011;1649;53.672;10.064;2024-02-26T10:42:36;29.20;;;14.60;;
3274;SDS011;1649;53.672;10.064;2024-02-26T10:45:03;33.33;;;15.80;;
3274;SDS011;1649;53.672;10.064;2024-02-26T10:47:30;29.10;;;14.60;;
3274;SDS011;1649;53.672;10.064;2024-02-26T10:49:58;29.20;;;14.47;;
3274;SDS011;1649;53.672;10.064;2024-02-26T10:52:24;26.87;;;14.73;;
3274;SDS011;1649;53.672;10.064;2024-02-26T10:54:53;33.40;;;16.20;;
3274;SDS011;1649;53.672;10.064;2024-02-26T10:57:21;24.70;;;14.40;;
3274;SDS011;1649;53.672;10.064;2024-02-26T10:59:49;29.80;;;14.80;;
3274;SDS011;1649;53.672;10.064;2024-02-26T11:02:16;28.13;;;15.37;;
3274;SDS011;1649;53.672;10.064;2024-02-26T11:04:42;28.23;;;14.87;;
3274;SDS011;1649;53.672;10.064;2024-02-26T11:07:09;29.90;;;16.13;;
3274;SDS011;1649;53.672;10.064;2024-02-26T11:09:35;25.43;;;14.47;;
3274;SDS011;1649;53.672;10.064;2024-02-26T11:12:07;26.30;;;15.00;;
3274;SDS011;1649;53.672;10.064;2024-02-26T11:14:37;28.73;;;15.67;;
3274;SDS011;1649;53.672;10.064;2024-02-26T11:17:04;26.37;;;14.53;;
3274;SDS011;1649;53.672;10.064;2024-02-26T11:19:32;24.40;;;14.17;;
3274;SDS011;1649;53.672;10.064;2024-02-26T11:22:00;26.50;;;15.00;;
3274;SDS011;1649;53.672;10.064;2024-02-26T11:24:26;28.17;;;16.70;;
3274;SDS011;1649;53.672;10.064;2024-02-26T11:26:55;25.57;;;15.90;;
3274;SDS011;1649;53.672;10.064;2024-02-26T11:29:26;26.00;;;14.07;;
3274;SDS011;1649;53.672;10.064;2024-02-26T11:31:55;23.63;;;13.70;;
3274;SDS011;1649;53.672;10.064;2024-02-26T11:34:20;23.57;;;13.30;;
3274;SDS011;1649;53.672;10.064;2024-02-26T11:36:46;25.13;;;13.97;;
3274;SDS011;1649;53.672;10.064;2024-02-26T11:39:12;23.40;;;13.10;;
3274;SDS011;1649;53.672;10.064;2024-02-26T11:41:40;21.43;;;13.40;;
3274;SDS011;1649;53.672;10.064;2024-02-26T11:44:05;21.40;;;12.87;;
3274;SDS011;1649;53.672;10.064;2024-02-26T11:46:41;21.03;;;12.80;;
3274;SDS011;1649;53.672;10.064;2024-02-26T11:51:55;20.73;;;12.27;;
3274;SDS011;1649;53.672;10.064;2024-02-26T11:57:25;23.90;;;14.43;;
3274;SDS011;1649;53.672;10.064;2024-02-26T11:59:55;26.23;;;14.97;;
3274;SDS011;1649;53.672;10.064;2024-02-26T12:02:38;23.17;;;13.80;;
3274;SDS011;1649;53.672;10.064;2024-02-26T12:05:17;20.67;;;11.93;;
3274;SDS011;1649;53.672;10.064;2024-02-26T12:07:45;26.47;;;15.27;;
3274;SDS011;1649;53.672;10.064;2024-02-26T12:10:16;23.07;;;14.43;;
3274;SDS011;1649;53.672;10.064;2024-02-26T12:12:42;24.90;;;14.57;;
3274;SDS011;1649;53.672;10.064;2024-02-26T12:15:08;22.80;;;12.67;;
3274;SDS011;1649;53.672;10.064;2024-02-26T12:17:35;23.57;;;13.50;;
3274;SDS011;1649;53.672;10.064;2024-02-26T12:20:08;21.93;;;12.10;;
3274;SDS011;1649;53.672;10.064;2024-02-26T12:22:34;21.30;;;12.07;;
3274;SDS011;1649;53.672;10.064;2024-02-26T12:25:02;23.63;;;13.20;;
3274;SDS011;1649;53.672;10.064;2024-02-26T12:27:28;22.17;;;12.23;;
3274;SDS011;1649;53.672;10.064;2024-02-26T12:29:53;22.33;;;11.93;;
3274;SDS011;1649;53.672;10.064;2024-02-26T12:32:19;21.93;;;12.40;;
3274;SDS011;1649;53.672;10.064;2024-02-26T12:34:44;21.90;;;12.63;;
3274;SDS011;1649;53.672;10.064;2024-02-26T12:37:10;23.57;;;12.50;;
3274;SDS011;1649;53.672;10.064;2024-02-26T12:39:36;22.83;;;12.67;;
3274;SDS011;1649;53.672;10.064;2024-02-26T12:42:03;19.63;;;11.80;;
3274;SDS011;1649;53.672;10.064;2024-02-26T12:44:29;20.37;;;11.77;;
3274;SDS011;1649;53.672;10.064;2024-02-26T12:47:00;17.90;;;10.80;;
3274;SDS011;1649;53.672;10.064;2024-02-26T12:49:27;21.27;;;11.57;;
3274;SDS011;1649;53.672;10.064;2024-02-26T12:51:53;19.07;;;11.00;;
3274;SDS011;1649;53.672;10.064;2024-02-26T12:54:18;19.33;;;11.10;;
3274;SDS011;1649;53.672;10.064;2024-02-26T12:56:44;19.90;;;12.00;;
3274;SDS011;1649;53.672;10.064;2024-02-26T12:59:10;24.03;;;13.87;;
3274;SDS011;1649;53.672;10.064;2024-02-26T13:01:35;22.20;;;13.30;;
3274;SDS011;1649;53.672;10.064;2024-02-26T13:04:01;24.87;;;12.57;;
3274;SDS011;1649;53.672;10.064;2024-02-26T13:06:31;23.23;;;12.63;;
3274;SDS011;1649;53.672;10.064;2024-02-26T13:08:58;21.63;;;12.50;;
3274;SDS011;1649;53.672;10.064;2024-02-26T13:11:24;21.47;;;11.80;;
3274;SDS011;1649;53.672;10.064;2024-02-26T13:13:50;20.43;;;10.73;;
3274;SDS011;1649;53.672;10.064;2024-02-26T13:16:16;25.50;;;13.13;;
3274;SDS011;1649;53.672;10.064;2024-02-26T13:18:41;24.33;;;13.50;;
3274;SDS011;1649;53.672;10.064;2024-02-26T13:21:08;24.63;;;12.80;;
3274;SDS011;1649;53.672;10.064;2024-02-26T13:23:35;23.20;;;13.70;;
3274;SDS011;1649;53.672;10.064;2024-02-26T13:26:01;25.30;;;14.10;;
3274;SDS011;1649;53.672;10.064;2024-02-26T13:28:26;22.33;;;12.40;;
3274;SDS011;1649;53.672;10.064;2024-02-26T13:30:55;24.03;;;13.60;;
3274;SDS011;1649;53.672;10.064;2024-02-26T13:33:22;25.20;;;13.27;;
3274;SDS011;1649;53.672;10.064;2024-02-26T13:35:48;24.20;;;13.73;;
3274;SDS011;1649;53.672;10.064;2024-02-26T13:38:13;26.87;;;12.07;;
3274;SDS011;1649;53.672;10.064;2024-02-26T13:40:39;19.87;;;11.20;;
3274;SDS011;1649;53.672;10.064;2024-02-26T13:43:05;20.77;;;12.10;;
3274;SDS011;1649;53.672;10.064;2024-02-26T13:45:33;19.50;;;12.13;;
3274;SDS011;1649;53.672;10.064;2024-02-26T13:48:01;19.77;;;10.87;;
3274;SDS011;1649;53.672;10.064;2024-02-26T13:50:28;22.70;;;12.00;;
3274;SDS011;1649;53.672;10.064;2024-02-26T13:52:53;19.07;;;11.33;;
3274;SDS011;1649;53.672;10.064;2024-02-26T13:55:20;21.23;;;11.90;;
3274;SDS011;1649;53.672;10.064;2024-02-26T13:57:48;19.43;;;11.60;;
3274;SDS011;1649;53.672;10.064;2024-02-26T14:00:14;20.80;;;12.10;;
3274;SDS011;1649;53.672;10.064;2024-02-26T14:02:40;20.40;;;12.17;;
3274;SDS011;1649;53.672;10.064;2024-02-26T14:05:05;21.40;;;11.80;;
3274;SDS011;1649;53.672;10.064;2024-02-26T14:07:31;21.53;;;11.80;;
3274;SDS011;1649;53.672;10.064;2024-02-26T14:09:57;22.07;;;12.40;;
3274;SDS011;1649;53.672;10.064;2024-02-26T14:12:23;19.33;;;11.43;;
3274;SDS011;1649;53.672;10.064;2024-02-26T14:14:48;22.10;;;12.73;;
3274;SDS011;1649;53.672;10.064;2024-02-26T14:17:14;20.60;;;11.37;;
3274;SDS011;1649;53.672;10.064;2024-02-26T14:19:40;21.47;;;11.80;;
3274;SDS011;1649;53.672;10.064;2024-02-26T14:22:10;19.60;;;11.47;;
3274;SDS011;1649;53.672;10.064;2024-02-26T14:24:36;21.50;;;13.20;;
3274;SDS011;1649;53.672;10.064;2024-02-26T14:27:01;21.50;;;12.00;;
3274;SDS011;1649;53.672;10.064;2024-02-26T14:29:27;21.67;;;11.60;;
3274;SDS011;1649;53.672;10.064;2024-02-26T14:31:53;20.33;;;12.13;;
3274;SDS011;1649;53.672;10.064;2024-02-26T14:34:18;21.50;;;11.70;;